Time;durP1;ratioP1;P1;durP2;ratioP2;P2;SDS_P1;SDS_P2;PMS_P1;PMS_P2;Temp;Humidity;BMP_temperature;BMP_pressure;BME280_temperature;BME280_humidity;BME280_pressure;Samples;Min_cycle;Max_cycle;Signal;HPM_P1;HPM_P2
2022/06/06 00:02:09;;;;;;;27.60;11.43;;;;;;;19.22;80.94;100724.52;1878370;76;21493;-66
2022/06/06 00:04:38;;;;;;;32.93;12.03;;;;;;;19.18;81.45;100715.05;1878510;76;21066;-66
2022/06/06 00:07:07;;;;;;;27.13;12.13;;;;;;;19.18;81.13;100719.52;1878591;76;21469;-66
2022/06/06 00:09:36;;;;;;;25.95;11.78;;;;;;;19.16;81.03;100718.78;1878458;76;21112;-66
2022/06/06 00:12:07;;;;;;;28.95;11.73;;;;;;;19.15;80.96;100722.44;1878337;76;21047;-66
2022/06/06 00:14:36;;;;;;;26.55;11.83;;;;;;;19.13;81.14;100726.55;1878584;76;21128;-66
2022/06/06 00:17:05;;;;;;;31.87;13.10;;;;;;;19.12;81.20;100722.66;1878500;76;21047;-66
2022/06/06 00:19:34;;;;;;;29.52;12.90;;;;;;;19.09;81.68;100717.92;1878522;76;21046;-66
2022/06/06 00:22:02;;;;;;;32.98;14.30;;;;;;;19.08;82.34;100723.38;1878577;76;21112;-65
2022/06/06 00:24:31;;;;;;;26.50;12.90;;;;;;;19.08;82.61;100723.38;1878360;76;21120;-66
2022/06/06 00:27:00;;;;;;;30.00;13.68;;;;;;;19.07;82.31;100721.66;1878469;76;21035;-66
2022/06/06 00:29:28;;;;;;;29.90;12.82;;;;;;;19.04;82.45;100718.75;1878489;76;21015;-66
2022/06/06 00:34:50;;;;;;;29.65;13.00;;;;;;;19.02;82.07;100714.50;1878453;76;21047;-66
2022/06/06 00:37:21;;;;;;;27.07;11.90;;;;;;;18.99;82.11;100711.56;1878444;76;21201;-66
2022/06/06 00:39:50;;;;;;;31.73;14.68;;;;;;;18.97;82.41;100707.32;1878478;76;21094;-66
2022/06/06 00:42:27;;;;;;;29.98;12.75;;;;;;;18.95;82.94;100699.92;1861656;76;21059;-65
2022/06/06 00:45:31;;;;;;;25.40;11.90;;;;;;;18.93;83.13;100707.19;1860013;77;21048;-65
2022/06/06 00:48:22;;;;;;;30.50;13.55;;;;;;;18.89;83.04;100701.23;1860052;77;21498;-65
2022/06/06 00:51:03;;;;;;;27.87;12.85;;;;;;;18.87;83.64;100700.00;1859940;77;21537;-65
2022/06/06 00:53:42;;;;;;;21.42;10.38;;;;;;;18.84;83.71;100704.23;1860007;76;21690;-66
2022/06/06 00:56:19;;;;;;;35.52;13.43;;;;;;;18.80;84.19;100712.06;1860049;77;21028;-65
2022/06/06 00:58:50;;;;;;;30.40;15.08;;;;;;;18.77;84.41;100708.28;1846991;76;21110;-64
2022/06/06 01:01:21;;;;;;;32.80;14.25;;;;;;;18.76;84.52;100708.39;1829202;78;21458;-64
2022/06/06 01:03:50;;;;;;;39.18;17.37;;;;;;;18.75;84.33;100716.03;1834588;78;21039;-63
2022/06/06 01:06:22;;;;;;;40.30;19.92;;;;;;;18.72;84.53;100721.13;1841386;78;21051;-66
2022/06/06 01:08:52;;;;;;;45.70;25.08;;;;;;;18.71;84.34;100715.41;1841467;78;21095;-64
2022/06/06 01:11:21;;;;;;;62.20;34.13;;;;;;;18.68;84.50;100717.83;1842028;77;21180;-65
2022/06/06 01:13:50;;;;;;;60.65;34.15;;;;;;;18.69;84.43;100719.52;1848635;77;21036;-65
2022/06/06 01:16:22;;;;;;;55.38;27.75;;;;;;;18.70;84.91;100727.03;1844150;77;21105;-64
2022/06/06 01:19:22;;;;;;;42.08;20.60;;;;;;;18.70;85.05;100723.90;1833131;77;21131;-66
2022/06/06 01:22:20;;;;;;;84.87;47.50;;;;;;;18.68;85.01;100728.50;1854385;77;21122;-66
2022/06/06 01:25:25;;;;;;;74.82;45.58;;;;;;;18.65;85.06;100730.54;1860158;77;21427;-65
2022/06/06 01:28:02;;;;;;;83.72;43.35;;;;;;;18.61;85.11;100731.70;1859838;76;21129;-63
2022/06/06 01:30:42;;;;;;;95.65;48.28;;;;;;;18.57;84.99;100734.23;1848308;77;21084;-63
2022/06/06 01:33:14;;;;;;;90.45;43.50;;;;;;;18.54;85.07;100735.80;1839861;77;21082;-65
2022/06/06 01:35:45;;;;;;;92.33;45.52;;;;;;;18.54;84.83;100735.80;1849243;77;21157;-63
2022/06/06 01:38:17;;;;;;;82.35;39.40;;;;;;;18.52;84.99;100730.58;1860069;77;21048;-65
2022/06/06 01:41:11;;;;;;;73.20;31.90;;;;;;;18.51;85.55;100727.03;1859996;77;21079;-66
2022/06/06 01:43:46;;;;;;;69.70;29.45;;;;;;;18.50;86.09;100724.51;1875710;76;21043;-64
2022/06/06 01:46:18;;;;;;;62.43;26.42;;;;;;;18.50;85.75;100739.17;1874525;76;21046;-65
2022/06/06 01:48:49;;;;;;;64.47;25.17;;;;;;;18.49;85.33;100730.79;1875228;76;21051;-64
2022/06/06 01:51:21;;;;;;;60.65;25.72;;;;;;;18.47;85.21;100728.23;1875925;76;21038;-64
2022/06/06 01:53:50;;;;;;;74.50;27.05;;;;;;;18.47;85.23;100735.38;1874413;76;21036;-65
2022/06/06 01:56:24;;;;;;;64.30;22.25;;;;;;;18.46;85.02;100743.88;1874034;76;21047;-63
2022/06/06 01:58:53;;;;;;;47.98;18.82;;;;;;;18.45;84.72;100744.83;1874130;76;21043;-62
2022/06/06 02:01:21;;;;;;;38.48;14.43;;;;;;;18.44;84.45;100741.80;1874182;76;21043;-61
2022/06/06 02:03:50;;;;;;;41.70;16.17;;;;;;;18.43;84.27;100745.91;1874243;76;21114;-61
2022/06/06 02:06:19;;;;;;;45.20;16.10;;;;;;;18.41;84.20;100750.50;1874258;76;21015;-62
2022/06/06 02:08:50;;;;;;;45.98;18.60;;;;;;;18.39;84.09;100751.06;1874201;76;21113;-63
2022/06/06 02:11:19;;;;;;;42.67;17.60;;;;;;;18.37;84.00;100752.53;1874387;76;21052;-62
2022/06/06 02:13:48;;;;;;;41.65;15.60;;;;;;;18.40;83.95;100752.30;1874232;76;21646;-65
2022/06/06 02:16:17;;;;;;;31.45;13.72;;;;;;;18.44;83.87;100757.80;1874233;76;21023;-66
2022/06/06 02:18:45;;;;;;;33.58;12.15;;;;;;;18.50;83.81;100754.68;1874237;76;21051;-66
2022/06/06 02:21:16;;;;;;;27.32;11.30;;;;;;;18.57;83.74;100750.22;1874207;76;21043;-67
2022/06/06 02:23:45;;;;;;;27.70;12.23;;;;;;;18.62;83.61;100746.27;1874194;76;21102;-66
2022/06/06 02:26:14;;;;;;;25.62;11.57;;;;;;;18.70;83.40;100750.57;1874361;76;21470;-66
2022/06/06 02:28:43;;;;;;;26.90;12.55;;;;;;;18.75;83.93;100748.88;1874343;76;21117;-66
2022/06/06 02:31:12;;;;;;;27.73;11.33;;;;;;;18.82;83.86;100746.66;1874227;76;21125;-66
2022/06/06 02:33:40;;;;;;;21.60;9.85;;;;;;;18.95;83.92;100750.61;1874204;76;21149;-66
2022/06/06 02:36:09;;;;;;;24.77;11.55;;;;;;;19.03;83.65;100758.88;1874175;76;21035;-63
2022/06/06 02:38:38;;;;;;;26.93;10.15;;;;;;;19.10;83.34;100754.30;1874224;76;21011;-63
2022/06/06 02:41:09;;;;;;;24.98;11.60;;;;;;;19.15;83.04;100749.97;1874277;76;21080;-62
2022/06/06 02:43:43;;;;;;;25.10;10.23;;;;;;;19.20;82.79;100750.48;1845633;76;21553;-61
2022/06/06 02:46:13;;;;;;;23.70;11.12;;;;;;;19.25;82.58;100749.63;1841873;78;21093;-64
2022/06/06 02:48:42;;;;;;;30.32;11.12;;;;;;;19.28;82.39;100744.07;1841976;78;21619;-62
2022/06/06 02:51:11;;;;;;;28.70;11.93;;;;;;;19.33;82.29;100749.08;1841931;78;21043;-61
2022/06/06 02:53:40;;;;;;;22.45;10.80;;;;;;;19.39;82.10;100754.44;1841885;78;21039;-63
2022/06/06 02:56:09;;;;;;;26.25;10.98;;;;;;;19.44;81.91;100750.91;1841876;78;21047;-63
2022/06/06 02:58:38;;;;;;;29.60;10.72;;;;;;;19.50;81.73;100750.45;1841894;78;21040;-63
2022/06/06 03:01:09;;;;;;;24.65;11.03;;;;;;;19.56;81.55;100755.81;1841853;78;21118;-64
2022/06/06 03:03:40;;;;;;;24.00;10.88;;;;;;;19.60;81.45;100758.11;1841907;78;21055;-63
2022/06/06 03:06:14;;;;;;;23.73;10.48;;;;;;;19.62;81.42;100756.20;1841994;78;21047;-64
2022/06/06 03:08:51;;;;;;;21.27;9.60;;;;;;;19.68;81.24;100754.88;1841412;77;21584;-62
2022/06/06 03:11:42;;;;;;;29.12;12.45;;;;;;;19.75;81.02;100756.60;1841592;77;21044;-62
2022/06/06 03:14:26;;;;;;;30.02;11.63;;;;;;;19.85;80.83;100760.27;1842588;77;21591;-62
2022/06/06 03:23:35;;;;;;;23.70;10.45;;;;;;;20.04;79.94;100768.53;1841866;78;21487;-62
2022/06/06 03:26:10;;;;;;;26.82;10.90;;;;;;;20.05;79.83;100769.41;1841805;77;21040;-62
2022/06/06 03:28:41;;;;;;;21.87;9.28;;;;;;;20.09;79.82;100772.70;1841826;77;21052;-62
2022/06/06 03:31:22;;;;;;;23.42;10.65;;;;;;;20.13;79.64;100767.47;1836794;78;21044;-62
2022/06/06 03:34:10;;;;;;;32.83;13.83;;;;;;;20.15;79.61;100770.87;1841458;77;21113;-62
2022/06/06 03:36:54;;;;;;;31.68;13.28;;;;;;;20.20;79.49;100774.03;1842098;77;21487;-62
2022/06/06 03:39:23;;;;;;;;;;;;;;;20.30;79.40;100768.80;1844186;77;21129;-61
2022/06/06 03:42:06;;;;;;;26.87;12.63;;;;;;;20.47;79.18;100770.12;1841781;77;20161;-62
2022/06/06 03:44:54;;;;;;;22.45;9.00;;;;;;;20.55;78.76;100774.38;1817430;77;21619;-62
2022/06/06 03:47:37;;;;;;;19.52;8.08;;;;;;;20.55;78.57;100777.90;1841892;78;21121;-62
2022/06/06 03:50:28;;;;;;;21.12;8.70;;;;;;;20.56;78.41;100780.08;1841929;78;21040;-60
2022/06/06 03:53:00;;;;;;;17.80;8.35;;;;;;;20.59;78.29;100778.50;1841965;78;21450;-64
2022/06/06 03:55:34;;;;;;;20.52;8.28;;;;;;;20.65;78.18;100782.04;1841717;78;21109;-64
2022/06/06 03:58:06;;;;;;;28.50;8.90;;;;;;;20.70;78.12;100780.34;1841075;78;21585;-63
2022/06/06 04:00:36;;;;;;;20.27;9.30;;;;;;;20.74;78.08;100778.62;1841916;78;21561;-63
2022/06/06 04:03:06;;;;;;;17.05;8.95;;;;;;;20.80;78.01;100779.94;1842049;78;21470;-64
2022/06/06 04:05:37;;;;;;;20.37;8.93;;;;;;;20.88;77.99;100781.98;1841745;78;21047;-64
2022/06/06 04:08:08;;;;;;;24.60;8.63;;;;;;;20.94;77.88;100781.00;1841965;78;21039;-63
2022/06/06 04:11:02;;;;;;;23.32;9.08;;;;;;;21.05;77.72;100781.97;1841824;77;21040;-63
2022/06/06 04:13:34;;;;;;;19.48;8.03;;;;;;;21.10;77.59;100780.60;1840956;77;21506;-64
2022/06/06 04:16:21;;;;;;;15.95;6.97;;;;;;;21.23;77.46;100787.59;1841419;77;21143;-64
2022/06/06 04:19:12;;;;;;;18.67;7.58;;;;;;;21.44;77.46;100785.81;1841881;78;21129;-63
2022/06/06 04:21:46;;;;;;;14.25;6.97;;;;;;;21.81;77.40;100789.41;1842275;77;21572;-64
2022/06/06 04:24:43;;;;;;;18.48;7.70;;;;;;;22.22;77.21;100789.48;1841772;78;21121;-65
2022/06/06 04:27:26;;;;;;;16.93;6.62;;;;;;;22.51;76.87;100789.13;1841863;78;21048;-61
2022/06/06 04:30:00;;;;;;;17.27;6.97;;;;;;;22.74;76.36;100791.12;1841875;77;21575;-60
2022/06/06 04:32:47;;;;;;;14.18;7.12;;;;;;;22.86;75.83;100791.00;1841884;77;21100;-62
2022/06/06 04:35:31;;;;;;;16.40;7.10;;;;;;;22.90;75.42;100790.56;1841962;78;21031;-62
2022/06/06 04:38:17;;;;;;;14.43;7.37;;;;;;;22.87;75.25;100789.99;1841882;78;21506;-64
2022/06/06 04:40:49;;;;;;;20.62;7.62;;;;;;;22.85;75.13;100787.95;1841440;77;21113;-64
2022/06/06 04:43:29;;;;;;;14.85;7.65;;;;;;;22.89;75.00;100792.08;1848381;76;21162;-62
2022/06/06 04:46:06;;;;;;;14.75;7.03;;;;;;;23.04;74.86;100788.02;1874127;76;21047;-61
2022/06/06 04:48:36;;;;;;;19.98;7.25;;;;;;;23.09;74.64;100788.92;1873022;76;21110;-63
2022/06/06 04:51:06;;;;;;;18.00;6.37;;;;;;;23.09;74.39;100787.59;1874202;76;21125;-62
2022/06/06 04:53:37;;;;;;;12.30;5.70;;;;;;;23.05;74.26;100787.52;1874023;76;21493;-60
2022/06/06 04:56:08;;;;;;;15.35;6.33;;;;;;;22.98;74.11;100781.84;1874319;76;21047;-64
2022/06/06 04:58:40;;;;;;;10.00;5.55;;;;;;;23.05;74.17;100781.64;1874324;76;21046;-64
2022/06/06 05:01:12;;;;;;;12.80;6.27;;;;;;;23.11;74.14;100782.45;1874503;76;21043;-62
2022/06/06 05:03:40;;;;;;;12.80;6.42;;;;;;;23.21;74.02;100781.60;1874146;76;21043;-64
2022/06/06 05:06:20;;;;;;;15.08;6.60;;;;;;;23.29;73.90;100789.79;1874091;76;21019;-64
2022/06/06 05:09:08;;;;;;;17.73;7.08;;;;;;;23.32;73.72;100784.14;1873550;76;21518;-65
2022/06/06 05:12:08;;;;;;;10.60;5.92;;;;;;;23.55;73.87;100778.47;1874175;76;21047;-64
2022/06/06 05:14:41;;;;;;;11.65;5.90;;;;;;;24.30;74.28;100782.63;1872886;76;21125;-65
2022/06/06 05:20:22;;;;;;;10.35;5.67;;;;;;;26.09;73.31;100779.98;1815486;79;21601;-67
2022/06/06 05:23:09;;;;;;;10.32;5.87;;;;;;;26.44;71.98;100773.24;1870751;76;21078;-65
2022/06/06 05:25:59;;;;;;;11.73;5.58;;;;;;;26.40;70.79;100778.12;1874149;76;21125;-62
2022/06/06 05:29:01;;;;;;;7.75;5.28;;;;;;;26.96;69.87;100787.93;1874117;76;21118;-63
2022/06/06 05:31:50;;;;;;;8.00;5.42;;;;;;;27.86;68.92;100783.08;1872895;76;21047;-64
2022/06/06 05:34:25;;;;;;;8.10;5.28;;;;;;;28.62;66.98;100780.32;1873185;76;21043;-63
2022/06/06 05:37:02;;;;;;;11.73;5.80;;;;;;;29.22;65.20;100776.08;1872362;76;21102;-68
2022/06/06 05:39:48;;;;;;;8.95;5.05;;;;;;;29.54;64.00;100783.61;1872891;76;21560;-69
2022/06/06 05:42:40;;;;;;;6.80;4.58;;;;;;;29.76;62.41;100781.08;1841841;76;21118;-69
2022/06/06 05:45:14;;;;;;;10.55;5.10;;;;;;;30.03;61.48;100780.44;1850596;76;21095;-69
2022/06/06 05:48:01;;;;;;;10.38;6.25;;;;;;;30.24;60.41;100784.27;1841842;78;21052;-69
2022/06/06 05:50:59;;;;;;;11.97;6.50;;;;;;;30.52;58.97;100786.34;1841810;78;21032;-67
2022/06/06 05:53:50;;;;;;;8.05;5.47;;;;;;;30.63;58.57;100791.28;1840854;77;21648;-67
2022/06/06 05:56:37;;;;;;;9.50;4.92;;;;;;;30.40;57.08;100793.62;1840829;77;21131;-67
2022/06/06 05:59:17;;;;;;;7.75;4.20;;;;;;;30.31;55.58;100781.66;1841926;78;21047;-67
2022/06/06 06:02:07;;;;;;;10.68;5.08;;;;;;;29.48;55.15;100783.52;1841939;78;21047;-67
2022/06/06 06:04:58;;;;;;;8.18;4.80;;;;;;;28.82;56.02;100780.72;1841802;78;21505;-67
2022/06/06 06:07:32;;;;;;;9.55;5.20;;;;;;;28.65;56.68;100786.75;1841997;78;21040;-67
2022/06/06 06:10:10;;;;;;;15.08;5.28;;;;;;;28.62;55.96;100782.20;1836361;77;21498;-66
2022/06/06 06:12:50;;;;;;;10.50;5.28;;;;;;;28.11;56.00;100783.39;1842019;78;21091;-67
2022/06/06 06:15:30;;;;;;;11.05;6.08;;;;;;;28.06;56.65;100782.22;1842000;78;21039;-67
2022/06/06 06:18:02;;;;;;;9.58;5.20;;;;;;;28.99;56.82;100776.55;1841833;77;21514;-67
2022/06/06 06:20:37;;;;;;;10.93;5.20;;;;;;;29.80;56.01;100773.72;1842166;78;21121;-64
2022/06/06 06:23:09;;;;;;;10.70;5.08;;;;;;;30.27;54.01;100773.54;1841907;78;21284;-64
2022/06/06 06:25:40;;;;;;;8.83;3.98;;;;;;;30.78;54.19;100765.42;1841972;78;21155;-63
2022/06/06 06:28:14;;;;;;;6.90;4.50;;;;;;;31.22;53.56;100779.92;1842197;78;21051;-62
2022/06/06 06:30:51;;;;;;;5.60;3.80;;;;;;;31.01;52.81;100773.45;1841921;78;21063;-68
2022/06/06 06:33:41;;;;;;;7.05;4.30;;;;;;;30.53;52.92;100774.45;1841931;78;21117;-71
2022/06/06 06:36:21;;;;;;;8.55;4.03;;;;;;;30.45;52.91;100769.11;1841841;77;21020;-72
2022/06/06 06:38:58;;;;;;;7.70;3.72;;;;;;;30.57;52.45;100767.59;1808661;77;21136;-75
2022/06/06 06:41:42;;;;;;;6.65;3.35;;;;;;;31.17;52.16;100771.83;1842117;78;21012;-64
2022/06/06 06:44:13;;;;;;;4.20;2.58;;;;;;;31.84;51.29;100768.31;1822041;76;21044;-66
2022/06/06 06:46:51;;;;;;;8.90;2.60;;;;;;;32.53;50.48;100770.68;1874179;76;21104;-65
2022/06/06 06:49:40;;;;;;;8.05;2.98;;;;;;;32.46;49.57;100768.45;1874047;76;21051;-65
2022/06/06 06:52:14;;;;;;;5.28;2.40;;;;;;;32.45;48.58;100766.25;1874207;76;21039;-66
2022/06/06 06:54:52;;;;;;;4.70;2.27;;;;;;;32.81;48.18;100762.94;1874108;76;21117;-71
2022/06/06 06:57:23;;;;;;;8.05;3.20;;;;;;;33.14;46.84;100767.64;1872170;76;21537;-64
2022/06/06 07:00:07;;;;;;;4.85;2.90;;;;;;;32.91;46.87;100771.57;1874273;76;21117;-70
2022/06/06 07:09:04;;;;;;;6.85;3.02;;;;;;;32.38;47.17;100774.09;1874111;76;21507;-71
2022/06/06 07:11:39;;;;;;;34.85;3.87;;;;;;;31.49;47.34;100775.06;1873799;76;21051;-71
2022/06/06 07:14:19;;;;;;;14.33;3.65;;;;;;;31.49;47.59;100775.06;1873192;76;21118;-66
2022/06/06 07:16:51;;;;;;;9.73;2.87;;;;;;;31.15;47.69;100780.71;1873792;76;21051;-65
2022/06/06 07:19:23;;;;;;;11.60;3.20;;;;;;;30.62;48.11;100786.89;1873072;76;21051;-64
2022/06/06 07:21:53;;;;;;;4.72;2.55;;;;;;;30.26;48.30;100778.14;1874496;76;21651;-64
2022/06/06 07:24:23;;;;;;;6.08;3.00;;;;;;;29.94;48.56;100772.06;1874181;76;21023;-63
2022/06/06 07:26:52;;;;;;;12.28;3.17;;;;;;;30.27;48.54;100775.77;1874307;76;21066;-62
2022/06/06 07:29:21;;;;;;;5.62;2.65;;;;;;;30.43;48.61;100778.80;1874183;76;21161;-66
2022/06/06 07:32:11;;;;;;;7.40;2.77;;;;;;;31.00;47.95;100773.64;1874237;76;21043;-66
2022/06/06 07:34:49;;;;;;;6.55;2.50;;;;;;;30.81;47.55;100768.29;1874338;76;21122;-62
2022/06/06 07:37:52;;;;;;;5.42;2.42;;;;;;;30.48;47.76;100774.17;1874256;76;21044;-62
2022/06/06 07:40:39;;;;;;;10.28;2.90;;;;;;;30.16;47.77;100774.88;1874190;76;21530;-62
2022/06/06 07:43:16;;;;;;;4.08;2.47;;;;;;;30.84;47.51;100765.16;1873395;76;21043;-60
2022/06/06 07:45:52;;;;;;;5.30;2.12;;;;;;;32.01;47.02;100768.00;1874010;76;21052;-61
2022/06/06 07:48:39;;;;;;;4.25;2.62;;;;;;;32.24;46.04;100769.09;1874230;76;21084;-60
2022/06/06 07:51:12;;;;;;;7.40;2.62;;;;;;;31.87;45.86;100771.14;1860436;76;21576;-66
2022/06/06 07:53:50;;;;;;;;;;;;;;;31.83;45.90;100774.78;1828184;76;21123;-64
2022/06/06 07:56:39;;;;;;;4.20;2.08;;;;;;;31.69;46.22;100783.39;1816598;76;20124;-63
2022/06/06 07:59:22;;;;;;;7.85;2.20;;;;;;;31.93;45.82;100784.81;1874089;76;21559;-62
2022/06/06 08:02:06;;;;;;;7.12;2.45;;;;;;;31.61;45.34;100793.58;1874095;76;21518;-62
2022/06/06 08:04:46;;;;;;;7.92;2.33;;;;;;;31.66;45.26;100784.31;1874138;76;21486;-63
2022/06/06 08:07:33;;;;;;;9.18;3.08;;;;;;;32.71;44.31;100789.23;1874208;76;21047;-62
2022/06/06 08:10:10;;;;;;;5.33;2.15;;;;;;;32.91;43.85;100789.30;1853421;76;21040;-63
2022/06/06 08:12:59;;;;;;;2.65;2.12;;;;;;;33.06;43.55;100794.03;1843215;76;21514;-62
2022/06/06 08:15:48;;;;;;;3.47;2.30;;;;;;;33.29;42.85;100794.20;1842753;77;21123;-62
2022/06/06 08:18:19;;;;;;;6.72;2.30;;;;;;;34.08;42.34;100793.86;1844084;76;21558;-63
2022/06/06 08:20:53;;;;;;;4.50;2.50;;;;;;;33.74;42.16;100788.98;1843020;76;21134;-62
2022/06/06 08:23:23;;;;;;;7.15;2.42;;;;;;;33.22;42.03;100792.02;1844421;76;21061;-63
2022/06/06 08:25:53;;;;;;;7.00;2.27;;;;;;;33.73;41.70;100787.30;1842806;78;21056;-62
2022/06/06 08:28:23;;;;;;;11.55;2.75;;;;;;;34.02;41.35;100895.25;1842763;78;21436;-63
2022/06/06 08:30:51;;;;;;;6.67;2.02;;;;;;;33.38;41.13;100790.22;1839122;76;21045;-67
2022/06/06 08:33:20;;;;;;;8.83;2.25;;;;;;;33.20;41.39;100798.17;1833938;76;21551;-64
2022/06/06 08:35:54;;;;;;;4.70;1.82;;;;;;;33.21;41.33;100786.23;1831006;78;21185;-63
2022/06/06 08:38:29;;;;;;;6.15;2.60;;;;;;;33.21;41.33;100786.23;1868935;76;21027;-63
2022/06/06 08:41:12;;;;;;;6.15;2.50;;;;;;;33.57;40.78;100793.16;1874046;76;21158;-65
2022/06/06 08:43:56;;;;;;;4.55;3.30;;;;;;;33.53;40.09;100787.27;1872702;76;21047;-62
2022/06/06 08:46:45;;;;;;;7.00;2.22;;;;;;;33.53;40.09;100787.27;1873665;76;21083;-63
2022/06/06 08:52:14;;;;;;;8.38;2.58;;;;;;;32.39;41.05;100798.91;1842860;78;21102;-62
2022/06/06 08:55:11;;;;;;;6.08;2.22;;;;;;;32.78;40.93;100805.09;1844061;76;21065;-62
2022/06/06 08:57:58;;;;;;;6.20;2.40;;;;;;;32.88;40.91;100806.89;1842660;78;21495;-67
2022/06/06 09:00:29;;;;;;;8.28;2.22;;;;;;;33.62;40.45;100804.29;1841852;77;21100;-66
2022/06/06 09:03:35;;;;;;;14.18;2.83;;;;;;;33.87;40.22;100806.42;1842886;78;21069;-67
2022/06/06 09:06:18;;;;;;;5.33;2.22;;;;;;;33.60;40.20;100798.20;1842567;78;21547;-67
2022/06/06 09:09:05;;;;;;;5.53;1.92;;;;;;;33.44;40.32;100802.18;1842707;78;21112;-68
2022/06/06 09:12:10;;;;;;;5.78;2.08;;;;;;;33.76;39.27;100806.00;1839760;76;21052;-69
2022/06/06 09:15:12;;;;;;;6.80;2.00;;;;;;;33.76;39.27;100806.00;1836337;78;21057;-66
2022/06/06 09:18:11;;;;;;;2.87;2.00;;;;;;;33.53;39.08;100804.19;1836451;77;21147;-63
2022/06/06 09:20:50;;;;;;;5.55;2.10;;;;;;;33.00;39.57;100793.52;1836083;78;21053;-62
2022/06/06 09:23:43;;;;;;;9.78;2.15;;;;;;;33.35;39.66;100801.56;1836083;78;21126;-64
2022/06/06 09:26:16;;;;;;;4.62;2.08;;;;;;;33.96;39.07;100801.05;1838197;78;21048;-65
2022/06/06 09:29:04;;;;;;;2.60;1.98;;;;;;;33.68;38.48;100802.13;1842581;78;21052;-69
2022/06/06 09:31:41;;;;;;;4.92;1.55;;;;;;;33.51;38.64;100803.02;1842737;78;21045;-68
2022/06/06 09:34:34;;;;;;;3.70;1.92;;;;;;;33.85;38.54;100800.63;1844625;76;21037;-67
2022/06/06 09:37:21;;;;;;;5.08;1.98;;;;;;;33.51;38.71;100800.83;1842715;78;21531;-70
2022/06/06 09:40:16;;;;;;;6.22;3.92;;;;;;;32.88;39.26;100795.98;1844194;76;21130;-69
2022/06/06 09:43:03;;;;;;;4.37;1.70;;;;;;;32.31;39.78;100796.70;1842926;78;21140;-64
2022/06/06 09:45:53;;;;;;;7.17;1.62;;;;;;;32.06;40.27;100795.52;1842973;76;21122;-62
2022/06/06 09:48:58;;;;;;;4.67;1.65;;;;;;;32.15;40.42;100797.53;1842806;78;21065;-63
2022/06/06 09:51:35;;;;;;;3.50;1.70;;;;;;;32.03;40.26;100791.81;1842796;78;21068;-64
2022/06/06 10:00:53;;;;;;;6.28;1.55;;;;;;;31.90;39.90;100787.92;1842797;76;21033;-66
2022/06/06 10:03:43;;;;;;;6.33;1.42;;;;;;;32.26;39.70;100782.84;1842828;78;21119;-62
2022/06/06 10:06:32;;;;;;;9.78;1.60;;;;;;;32.41;39.64;100785.95;1842985;78;21065;-67
2022/06/06 10:09:13;;;;;;;3.90;1.62;;;;;;;32.57;39.46;100786.94;1844325;76;21080;-68
2022/06/06 10:12:10;;;;;;;9.53;1.87;;;;;;;32.83;39.35;100790.33;1843058;78;21123;-66
2022/06/06 10:14:42;;;;;;;2.37;1.30;;;;;;;32.97;39.14;100788.99;1842630;78;21052;-68
2022/06/06 10:17:33;;;;;;;1.02;0.93;;;;;;;32.93;38.21;100787.20;1844266;76;21033;-66
2022/06/06 10:20:20;;;;;;;2.45;1.50;;;;;;;32.59;37.75;100791.72;1842801;78;21052;-66
2022/06/06 10:23:12;;;;;;;3.12;1.42;;;;;;;32.27;37.80;100787.23;1844335;76;21452;-67
2022/06/06 10:26:01;;;;;;;4.60;1.90;;;;;;;32.31;37.94;100784.95;1853703;76;21047;-70
2022/06/06 10:28:41;;;;;;;4.40;2.08;;;;;;;32.03;37.90;100789.09;1874346;76;21043;-66
2022/06/06 10:31:25;;;;;;;4.35;1.52;;;;;;;32.03;38.42;100782.28;1872888;76;21051;-66
2022/06/06 10:34:16;;;;;;;5.05;1.60;;;;;;;32.20;38.17;100781.44;1874352;76;21090;-68
2022/06/06 10:37:00;;;;;;;4.45;2.05;;;;;;;32.12;37.88;100781.08;1874329;76;21101;-68
2022/06/06 10:39:43;;;;;;;5.25;1.60;;;;;;;32.08;38.45;100773.83;1854735;76;21534;-68
2022/06/06 10:42:22;;;;;;;6.28;1.52;;;;;;;32.27;38.75;100771.41;1872167;76;21121;-71
2022/06/06 10:45:02;;;;;;;2.22;1.65;;;;;;;32.34;38.78;100772.81;1873471;76;21047;-71
2022/06/06 10:47:55;;;;;;;2.35;1.45;;;;;;;32.20;37.97;100775.45;1872438;76;21165;-69
2022/06/06 10:51:36;;;;;;;3.15;1.45;;;;;;;31.72;37.81;100770.76;1874517;76;21118;-71
2022/06/06 10:53:18;;;;;;;3.25;1.92;;;;;;;31.49;38.03;100766.08;1866134;76;21063;-61
2022/06/06 10:56:10;;;;;;;3.33;1.50;;;;;;;31.30;38.33;100769.76;1856879;76;21023;-66
2022/06/06 10:59:10;;;;;;;5.30;2.08;;;;;;;31.25;38.40;100764.58;1874724;76;21568;-64
2022/06/06 11:01:51;;;;;;;3.75;1.82;;;;;;;31.04;38.73;100764.91;1873076;76;21051;-63
2022/06/06 11:04:31;;;;;;;7.70;1.57;;;;;;;31.01;38.79;100759.86;1874545;76;21117;-71
2022/06/06 11:07:29;;;;;;;6.58;1.77;;;;;;;30.87;39.19;100757.47;1871573;76;21055;-65
2022/06/06 11:10:29;;;;;;;5.90;1.72;;;;;;;30.85;39.44;100752.75;1874523;76;21568;-61
2022/06/06 11:13:10;;;;;;;2.58;1.70;;;;;;;30.87;39.29;100749.84;1874560;76;21102;-72
2022/06/06 11:15:51;;;;;;;3.05;1.75;;;;;;;30.59;39.42;100745.15;1874165;76;21483;-63
2022/06/06 11:18:28;;;;;;;6.58;2.40;;;;;;;30.43;39.43;100738.58;1873658;75;21143;-60
2022/06/06 11:21:19;;;;;;;4.75;1.90;;;;;;;30.14;39.60;100730.27;1876745;76;21094;-63
2022/06/06 11:23:59;;;;;;;3.22;1.45;;;;;;;30.05;40.10;100738.18;1877022;76;21023;-63
2022/06/06 11:26:40;;;;;;;3.50;1.42;;;;;;;30.07;40.28;100734.76;1846950;77;21089;-63
2022/06/06 11:29:42;;;;;;;6.08;2.10;;;;;;;30.02;40.50;100727.16;1847198;78;21054;-64
2022/06/06 11:32:36;;;;;;;6.78;1.57;;;;;;;29.90;40.55;100723.26;1835160;77;21125;-63
2022/06/06 11:35:12;;;;;;;4.42;1.60;;;;;;;29.94;40.77;100727.27;1847315;78;21050;-63
2022/06/06 11:37:48;;;;;;;3.52;1.92;;;;;;;29.81;41.03;100732.52;1863620;76;21031;-63
2022/06/06 11:40:54;;;;;;;4.33;1.70;;;;;;;29.72;41.13;100720.03;1870518;76;21047;-64
2022/06/06 11:43:55;;;;;;;3.45;1.50;;;;;;;29.75;41.19;100716.96;1874610;76;21129;-63
2022/06/06 11:46:47;;;;;;;3.65;1.47;;;;;;;29.81;40.73;100729.80;1874432;76;21548;-63
2022/06/06 11:49:37;;;;;;;8.45;2.05;;;;;;;29.68;40.42;100720.92;1872468;76;21162;-63
2022/06/06 11:52:17;;;;;;;4.78;1.90;;;;;;;29.69;40.54;100714.97;1874305;76;21046;-63
2022/06/06 11:55:04;;;;;;;5.60;1.87;;;;;;;29.58;40.36;100714.38;1874044;75;21047;-67
2022/06/06 11:58:00;;;;;;;6.55;1.75;;;;;;;29.63;40.58;100709.25;1873402;75;21490;-66
2022/06/06 12:00:51;;;;;;;5.42;2.35;;;;;;;29.65;40.68;100712.62;1864200;77;21110;-66
2022/06/06 12:03:35;;;;;;;1.92;1.32;;;;;;;29.67;40.88;100714.32;1873412;76;21113;-66
2022/06/06 12:06:30;;;;;;;6.75;1.72;;;;;;;29.73;41.01;100713.56;1873460;76;21125;-63
2022/06/06 12:09:12;;;;;;;5.50;1.65;;;;;;;29.67;40.66;100710.25;1874084;76;21075;-64
2022/06/06 12:12:05;;;;;;;5.83;1.75;;;;;;;29.37;40.99;100702.08;1874204;76;21043;-64
2022/06/06 12:14:45;;;;;;;3.35;1.40;;;;;;;29.12;41.38;100706.31;1874316;76;21157;-65
2022/06/06 12:17:33;;;;;;;5.22;1.30;;;;;;;29.05;41.60;100708.09;1877282;75;21060;-65
2022/06/06 12:20:14;;;;;;;9.08;1.85;;;;;;;29.20;41.60;100709.00;1876951;75;21054;-68
2022/06/06 12:23:08;;;;;;;4.60;1.65;;;;;;;29.32;41.18;100713.98;1877613;76;21052;-68
2022/06/06 12:25:57;;;;;;;4.95;1.77;;;;;;;29.25;40.67;100706.59;1878488;76;21041;-67
2022/06/06 12:28:41;;;;;;;6.87;1.90;;;;;;;29.06;40.83;100709.23;1878399;76;21111;-67
2022/06/06 12:31:42;;;;;;;7.03;1.77;;;;;;;28.82;41.10;100710.27;1878417;76;21495;-67
2022/06/06 12:34:27;;;;;;;3.83;1.37;;;;;;;28.62;41.51;100709.89;1877455;76;21552;-68
2022/06/06 12:37:16;;;;;;;2.58;1.67;;;;;;;28.47;41.82;100705.72;1878288;76;22248;-66
2022/06/06 12:40:16;;;;;;;7.22;1.40;;;;;;;28.32;42.01;100708.02;1877044;76;21052;-67
2022/06/06 12:42:54;;;;;;;3.92;1.02;;;;;;;28.27;42.20;100699.89;1845146;76;21495;-66
2022/06/06 12:45:44;;;;;;;4.05;1.90;;;;;;;28.46;41.94;100697.28;1877711;76;21166;-70
2022/06/06 12:48:46;;;;;;;10.10;2.50;;;;;;;28.53;41.92;100693.88;1878101;75;21503;-70